sensor_id;sensor_type;location;lat;lon;timestamp;P1;durP1;ratioP1;P2;durP2;ratioP2
66429;SDS011;53242;51.694;10.006;2022-12-18T00:00:29;28.23;;;10.27;;
66429;SDS011;53242;51.694;10.006;2022-12-18T00:02:51;27.58;;;9.25;;
66429;SDS011;53242;51.694;10.006;2022-12-18T00:05:13;32.97;;;8.32;;
66429;SDS011;53242;51.694;10.006;2022-12-18T00:07:36;26.88;;;8.50;;
66429;SDS011;53242;51.694;10.006;2022-12-18T00:09:59;20.35;;;7.72;;
66429;SDS011;53242;51.694;10.006;2022-12-18T00:12:21;25.10;;;8.52;;
66429;SDS011;53242;51.694;10.006;2022-12-18T00:14:43;22.77;;;8.38;;
66429;SDS011;53242;51.694;10.006;2022-12-18T00:17:06;18.58;;;6.65;;
66429;SDS011;53242;51.694;10.006;2022-12-18T00:19:28;25.05;;;7.15;;
66429;SDS011;53242;51.694;10.006;2022-12-18T00:21:51;18.33;;;6.30;;
66429;SDS011;53242;51.694;10.006;2022-12-18T00:24:13;20.50;;;7.13;;
66429;SDS011;53242;51.694;10.006;2022-12-18T00:26:36;17.70;;;6.63;;
66429;SDS011;53242;51.694;10.006;2022-12-18T00:29:01;21.48;;;7.10;;
66429;SDS011;53242;51.694;10.006;2022-12-18T00:31:29;18.08;;;6.18;;
66429;SDS011;53242;51.694;10.006;2022-12-18T00:33:53;23.45;;;6.70;;
66429;SDS011;53242;51.694;10.006;2022-12-18T00:36:19;16.63;;;5.40;;
66429;SDS011;53242;51.694;10.006;2022-12-18T00:38:43;18.33;;;6.28;;
66429;SDS011;53242;51.694;10.006;2022-12-18T00:41:06;17.13;;;5.47;;
66429;SDS011;53242;51.694;10.006;2022-12-18T00:43:31;13.70;;;4.97;;
66429;SDS011;53242;51.694;10.006;2022-12-18T00:45:56;15.93;;;5.28;;
66429;SDS011;53242;51.694;10.006;2022-12-18T00:48:18;15.82;;;5.88;;
66429;SDS011;53242;51.694;10.006;2022-12-18T00:50:41;19.85;;;5.30;;
66429;SDS011;53242;51.694;10.006;2022-12-18T00:53:03;12.73;;;4.30;;
66429;SDS011;53242;51.694;10.006;2022-12-18T00:55:26;14.75;;;4.72;;
66429;SDS011;53242;51.694;10.006;2022-12-18T00:57:50;17.10;;;5.70;;
66429;SDS011;53242;51.694;10.006;2022-12-18T01:00:14;12.35;;;4.05;;
66429;SDS011;53242;51.694;10.006;2022-12-18T01:02:37;15.75;;;4.88;;
66429;SDS011;53242;51.694;10.006;2022-12-18T01:05:00;13.70;;;4.65;;
66429;SDS011;53242;51.694;10.006;2022-12-18T01:07:23;14.90;;;4.63;;
66429;SDS011;53242;51.694;10.006;2022-12-18T01:09:45;13.90;;;5.05;;
66429;SDS011;53242;51.694;10.006;2022-12-18T01:12:07;12.90;;;4.00;;
66429;SDS011;53242;51.694;10.006;2022-12-18T01:14:30;14.68;;;4.80;;
66429;SDS011;53242;51.694;10.006;2022-12-18T01:16:52;13.43;;;4.10;;
66429;SDS011;53242;51.694;10.006;2022-12-18T01:19:15;13.38;;;4.57;;
66429;SDS011;53242;51.694;10.006;2022-12-18T01:21:37;15.32;;;5.15;;
66429;SDS011;53242;51.694;10.006;2022-12-18T01:24:00;14.88;;;4.13;;
66429;SDS011;53242;51.694;10.006;2022-12-18T01:26:23;13.68;;;4.65;;
66429;SDS011;53242;51.694;10.006;2022-12-18T01:28:47;14.82;;;5.05;;
66429;SDS011;53242;51.694;10.006;2022-12-18T01:31:31;13.52;;;4.32;;
66429;SDS011;53242;51.694;10.006;2022-12-18T01:33:54;14.80;;;4.85;;
66429;SDS011;53242;51.694;10.006;2022-12-18T01:36:50;16.50;;;4.40;;
66429;SDS011;53242;51.694;10.006;2022-12-18T01:39:13;16.75;;;4.80;;
66429;SDS011;53242;51.694;10.006;2022-12-18T01:41:37;15.10;;;4.65;;
66429;SDS011;53242;51.694;10.006;2022-12-18T01:47:28;10.80;;;4.32;;
66429;SDS011;53242;51.694;10.006;2022-12-18T01:49:56;15.80;;;4.70;;
66429;SDS011;53242;51.694;10.006;2022-12-18T01:52:20;13.50;;;4.93;;
66429;SDS011;53242;51.694;10.006;2022-12-18T01:54:44;15.73;;;5.10;;
66429;SDS011;53242;51.694;10.006;2022-12-18T01:57:07;13.38;;;3.88;;
66429;SDS011;53242;51.694;10.006;2022-12-18T01:59:29;14.63;;;4.55;;
66429;SDS011;53242;51.694;10.006;2022-12-18T02:01:54;14.82;;;4.80;;
66429;SDS011;53242;51.694;10.006;2022-12-18T02:06:42;14.43;;;4.50;;
66429;SDS011;53242;51.694;10.006;2022-12-18T02:09:10;12.20;;;3.55;;
66429;SDS011;53242;51.694;10.006;2022-12-18T02:21:57;12.45;;;4.57;;
66429;SDS011;53242;51.694;10.006;2022-12-18T02:24:37;15.02;;;4.50;;
66429;SDS011;53242;51.694;10.006;2022-12-18T02:27:16;13.38;;;3.95;;
66429;SDS011;53242;51.694;10.006;2022-12-18T02:29:43;16.00;;;4.70;;
66429;SDS011;53242;51.694;10.006;2022-12-18T02:32:18;14.75;;;5.53;;
66429;SDS011;53242;51.694;10.006;2022-12-18T02:34:47;14.68;;;4.43;;
66429;SDS011;53242;51.694;10.006;2022-12-18T02:37:13;13.63;;;4.50;;
66429;SDS011;53242;51.694;10.006;2022-12-18T02:39:40;13.82;;;3.55;;
66429;SDS011;53242;51.694;10.006;2022-12-18T02:42:07;15.48;;;4.45;;
66429;SDS011;53242;51.694;10.006;2022-12-18T02:44:30;11.38;;;4.63;;
66429;SDS011;53242;51.694;10.006;2022-12-18T02:46:54;19.98;;;4.70;;
66429;SDS011;53242;51.694;10.006;2022-12-18T02:55:28;14.45;;;5.15;;
66429;SDS011;53242;51.694;10.006;2022-12-18T02:58:16;16.38;;;4.43;;
66429;SDS011;53242;51.694;10.006;2022-12-18T03:01:15;19.00;;;5.95;;
66429;SDS011;53242;51.694;10.006;2022-12-18T03:03:47;15.10;;;4.65;;
66429;SDS011;53242;51.694;10.006;2022-12-18T03:06:21;16.83;;;5.10;;
66429;SDS011;53242;51.694;10.006;2022-12-18T03:08:51;16.63;;;5.63;;
66429;SDS011;53242;51.694;10.006;2022-12-18T03:11:20;15.50;;;5.03;;
66429;SDS011;53242;51.694;10.006;2022-12-18T03:14:03;18.60;;;5.28;;
66429;SDS011;53242;51.694;10.006;2022-12-18T03:16:28;13.38;;;4.07;;
66429;SDS011;53242;51.694;10.006;2022-12-18T03:21:20;14.10;;;4.72;;
66429;SDS011;53242;51.694;10.006;2022-12-18T03:23:52;16.08;;;5.32;;
66429;SDS011;53242;51.694;10.006;2022-12-18T03:26:19;13.48;;;4.40;;
66429;SDS011;53242;51.694;10.006;2022-12-18T03:28:53;14.45;;;4.50;;
66429;SDS011;53242;51.694;10.006;2022-12-18T03:31:21;12.65;;;4.63;;
66429;SDS011;53242;51.694;10.006;2022-12-18T03:33:47;15.18;;;4.20;;
66429;SDS011;53242;51.694;10.006;2022-12-18T03:36:15;12.20;;;4.43;;
66429;SDS011;53242;51.694;10.006;2022-12-18T03:38:37;15.65;;;5.63;;
66429;SDS011;53242;51.694;10.006;2022-12-18T03:43:43;16.50;;;6.40;;
66429;SDS011;53242;51.694;10.006;2022-12-18T03:46:19;18.23;;;5.53;;
66429;SDS011;53242;51.694;10.006;2022-12-18T03:48:46;18.50;;;6.63;;
66429;SDS011;53242;51.694;10.006;2022-12-18T03:51:16;17.77;;;5.07;;
66429;SDS011;53242;51.694;10.006;2022-12-18T03:54:02;18.40;;;4.85;;
66429;SDS011;53242;51.694;10.006;2022-12-18T03:56:33;19.23;;;5.82;;
66429;SDS011;53242;51.694;10.006;2022-12-18T03:59:01;16.48;;;5.88;;
66429;SDS011;53242;51.694;10.006;2022-12-18T04:01:35;18.65;;;6.03;;
66429;SDS011;53242;51.694;10.006;2022-12-18T04:04:02;17.50;;;5.97;;
66429;SDS011;53242;51.694;10.006;2022-12-18T04:06:29;17.38;;;6.20;;
66429;SDS011;53242;51.694;10.006;2022-12-18T04:08:53;19.13;;;6.47;;
66429;SDS011;53242;51.694;10.006;2022-12-18T04:11:18;22.02;;;6.18;;
66429;SDS011;53242;51.694;10.006;2022-12-18T04:13:43;20.15;;;6.28;;
66429;SDS011;53242;51.694;10.006;2022-12-18T04:16:12;15.60;;;5.80;;
66429;SDS011;53242;51.694;10.006;2022-12-18T04:18:37;15.77;;;5.05;;
66429;SDS011;53242;51.694;10.006;2022-12-18T04:21:00;20.45;;;5.97;;
66429;SDS011;53242;51.694;10.006;2022-12-18T04:23:23;21.58;;;6.07;;
66429;SDS011;53242;51.694;10.006;2022-12-18T04:25:49;17.85;;;5.53;;
66429;SDS011;53242;51.694;10.006;2022-12-18T04:28:19;23.00;;;6.78;;
66429;SDS011;53242;51.694;10.006;2022-12-18T04:30:41;20.25;;;5.40;;
66429;SDS011;53242;51.694;10.006;2022-12-18T04:33:07;17.88;;;5.70;;
66429;SDS011;53242;51.694;10.006;2022-12-18T04:35:34;19.10;;;6.43;;
66429;SDS011;53242;51.694;10.006;2022-12-18T04:37:56;12.13;;;4.15;;
66429;SDS011;53242;51.694;10.006;2022-12-18T04:40:19;17.73;;;5.45;;
66429;SDS011;53242;51.694;10.006;2022-12-18T04:42:43;13.65;;;5.60;;
66429;SDS011;53242;51.694;10.006;2022-12-18T04:45:06;18.00;;;5.35;;
66429;SDS011;53242;51.694;10.006;2022-12-18T04:47:29;15.70;;;5.03;;
66429;SDS011;53242;51.694;10.006;2022-12-18T04:49:51;14.15;;;4.88;;
66429;SDS011;53242;51.694;10.006;2022-12-18T04:52:14;15.05;;;4.90;;
66429;SDS011;53242;51.694;10.006;2022-12-18T04:54:36;17.17;;;5.32;;
66429;SDS011;53242;51.694;10.006;2022-12-18T04:56:58;16.35;;;4.90;;
66429;SDS011;53242;51.694;10.006;2022-12-18T04:59:22;8.18;;;3.00;;
66429;SDS011;53242;51.694;10.006;2022-12-18T05:01:44;17.05;;;5.95;;
66429;SDS011;53242;51.694;10.006;2022-12-18T05:04:07;20.02;;;5.43;;
66429;SDS011;53242;51.694;10.006;2022-12-18T05:06:30;16.25;;;4.97;;
66429;SDS011;53242;51.694;10.006;2022-12-18T05:08:52;17.95;;;5.82;;
66429;SDS011;53242;51.694;10.006;2022-12-18T05:11:15;20.60;;;6.55;;
66429;SDS011;53242;51.694;10.006;2022-12-18T05:13:37;16.30;;;6.07;;
66429;SDS011;53242;51.694;10.006;2022-12-18T05:16:00;16.60;;;4.70;;
66429;SDS011;53242;51.694;10.006;2022-12-18T05:18:23;18.40;;;5.15;;
66429;SDS011;53242;51.694;10.006;2022-12-18T05:20:46;16.85;;;5.20;;
66429;SDS011;53242;51.694;10.006;2022-12-18T05:23:09;14.65;;;4.70;;
66429;SDS011;53242;51.694;10.006;2022-12-18T05:25:31;18.63;;;4.82;;
66429;SDS011;53242;51.694;10.006;2022-12-18T05:27:54;11.48;;;3.53;;
66429;SDS011;53242;51.694;10.006;2022-12-18T05:30:16;15.98;;;6.22;;
66429;SDS011;53242;51.694;10.006;2022-12-18T05:32:39;22.67;;;6.55;;
66429;SDS011;53242;51.694;10.006;2022-12-18T05:35:02;18.38;;;5.40;;
66429;SDS011;53242;51.694;10.006;2022-12-18T05:37:25;18.05;;;5.47;;
66429;SDS011;53242;51.694;10.006;2022-12-18T05:39:47;22.17;;;5.68;;
66429;SDS011;53242;51.694;10.006;2022-12-18T05:42:10;15.45;;;4.88;;
66429;SDS011;53242;51.694;10.006;2022-12-18T05:44:32;15.07;;;5.35;;
66429;SDS011;53242;51.694;10.006;2022-12-18T05:46:55;22.13;;;5.93;;
66429;SDS011;53242;51.694;10.006;2022-12-18T05:49:17;22.63;;;6.93;;
66429;SDS011;53242;51.694;10.006;2022-12-18T05:51:39;16.08;;;4.65;;
66429;SDS011;53242;51.694;10.006;2022-12-18T05:54:02;24.77;;;5.88;;
66429;SDS011;53242;51.694;10.006;2022-12-18T05:56:24;18.08;;;6.13;;
66429;SDS011;53242;51.694;10.006;2022-12-18T05:58:47;12.77;;;4.93;;
66429;SDS011;53242;51.694;10.006;2022-12-18T06:01:14;12.88;;;4.30;;
66429;SDS011;53242;51.694;10.006;2022-12-18T06:03:41;11.77;;;4.25;;
66429;SDS011;53242;51.694;10.006;2022-12-18T06:06:03;13.30;;;4.28;;
66429;SDS011;53242;51.694;10.006;2022-12-18T06:08:26;23.50;;;4.72;;
66429;SDS011;53242;51.694;10.006;2022-12-18T06:10:51;15.43;;;5.10;;
66429;SDS011;53242;51.694;10.006;2022-12-18T06:13:17;16.85;;;4.72;;
66429;SDS011;53242;51.694;10.006;2022-12-18T06:15:39;19.88;;;4.95;;
66429;SDS011;53242;51.694;10.006;2022-12-18T06:18:01;11.55;;;3.33;;
66429;SDS011;53242;51.694;10.006;2022-12-18T06:20:24;19.48;;;5.15;;
66429;SDS011;53242;51.694;10.006;2022-12-18T06:22:46;18.05;;;4.97;;
66429;SDS011;53242;51.694;10.006;2022-12-18T06:25:09;15.15;;;5.15;;
66429;SDS011;53242;51.694;10.006;2022-12-18T06:27:31;14.23;;;5.07;;
66429;SDS011;53242;51.694;10.006;2022-12-18T06:29:55;18.98;;;5.22;;
66429;SDS011;53242;51.694;10.006;2022-12-18T06:32:18;12.25;;;4.82;;
66429;SDS011;53242;51.694;10.006;2022-12-18T06:34:40;16.50;;;5.35;;
66429;SDS011;53242;51.694;10.006;2022-12-18T06:37:02;16.88;;;5.47;;
66429;SDS011;53242;51.694;10.006;2022-12-18T06:39:28;18.15;;;5.20;;
66429;SDS011;53242;51.694;10.006;2022-12-18T06:41:51;16.52;;;4.90;;
66429;SDS011;53242;51.694;10.006;2022-12-18T06:44:13;8.35;;;3.13;;
66429;SDS011;53242;51.694;10.006;2022-12-18T06:46:36;11.55;;;4.60;;
66429;SDS011;53242;51.694;10.006;2022-12-18T06:48:59;16.40;;;4.82;;
66429;SDS011;53242;51.694;10.006;2022-12-18T06:51:22;15.85;;;4.90;;
66429;SDS011;53242;51.694;10.006;2022-12-18T06:53:46;15.40;;;5.35;;
66429;SDS011;53242;51.694;10.006;2022-12-18T06:56:08;13.32;;;3.28;;
66429;SDS011;53242;51.694;10.006;2022-12-18T06:58:31;18.85;;;5.55;;
66429;SDS011;53242;51.694;10.006;2022-12-18T07:00:53;17.17;;;5.18;;
66429;SDS011;53242;51.694;10.006;2022-12-18T07:03:15;16.38;;;5.30;;
66429;SDS011;53242;51.694;10.006;2022-12-18T07:05:41;15.48;;;5.28;;
66429;SDS011;53242;51.694;10.006;2022-12-18T07:08:03;19.48;;;5.30;;
66429;SDS011;53242;51.694;10.006;2022-12-18T07:10:25;15.77;;;5.10;;
66429;SDS011;53242;51.694;10.006;2022-12-18T07:12:48;18.30;;;5.78;;
66429;SDS011;53242;51.694;10.006;2022-12-18T07:15:10;14.43;;;4.78;;
66429;SDS011;53242;51.694;10.006;2022-12-18T07:17:33;14.05;;;4.72;;
66429;SDS011;53242;51.694;10.006;2022-12-18T07:19:55;14.13;;;4.80;;
66429;SDS011;53242;51.694;10.006;2022-12-18T07:22:17;14.82;;;4.45;;
66429;SDS011;53242;51.694;10.006;2022-12-18T07:24:40;12.48;;;3.80;;
66429;SDS011;53242;51.694;10.006;2022-12-18T07:27:02;19.75;;;5.85;;
66429;SDS011;53242;51.694;10.006;2022-12-18T07:29:25;19.35;;;6.13;;
66429;SDS011;53242;51.694;10.006;2022-12-18T07:31:47;15.00;;;4.95;;
66429;SDS011;53242;51.694;10.006;2022-12-18T07:34:10;12.98;;;3.80;;
66429;SDS011;53242;51.694;10.006;2022-12-18T07:36:34;12.88;;;4.07;;
66429;SDS011;53242;51.694;10.006;2022-12-18T07:38:57;11.57;;;3.47;;
66429;SDS011;53242;51.694;10.006;2022-12-18T07:41:19;17.08;;;4.18;;
66429;SDS011;53242;51.694;10.006;2022-12-18T07:43:42;22.23;;;5.40;;
66429;SDS011;53242;51.694;10.006;2022-12-18T07:46:06;13.88;;;4.35;;
66429;SDS011;53242;51.694;10.006;2022-12-18T07:48:29;18.52;;;5.82;;
66429;SDS011;53242;51.694;10.006;2022-12-18T07:50:51;19.10;;;5.63;;
66429;SDS011;53242;51.694;10.006;2022-12-18T07:53:14;12.30;;;4.57;;
66429;SDS011;53242;51.694;10.006;2022-12-18T07:55:37;16.90;;;6.47;;
66429;SDS011;53242;51.694;10.006;2022-12-18T07:58:03;15.32;;;4.38;;
66429;SDS011;53242;51.694;10.006;2022-12-18T08:00:26;19.08;;;5.30;;
66429;SDS011;53242;51.694;10.006;2022-12-18T08:02:48;21.88;;;5.72;;
66429;SDS011;53242;51.694;10.006;2022-12-18T08:05:11;11.13;;;4.03;;
66429;SDS011;53242;51.694;10.006;2022-12-18T08:07:33;10.10;;;4.03;;
66429;SDS011;53242;51.694;10.006;2022-12-18T08:09:56;8.40;;;2.55;;
66429;SDS011;53242;51.694;10.006;2022-12-18T08:12:18;19.58;;;5.22;;
66429;SDS011;53242;51.694;10.006;2022-12-18T08:14:40;5.88;;;2.05;;
66429;SDS011;53242;51.694;10.006;2022-12-18T08:17:03;10.13;;;3.97;;
66429;SDS011;53242;51.694;10.006;2022-12-18T08:19:25;10.85;;;3.63;;
66429;SDS011;53242;51.694;10.006;2022-12-18T08:21:48;11.80;;;3.60;;
66429;SDS011;53242;51.694;10.006;2022-12-18T08:24:10;12.98;;;3.10;;
66429;SDS011;53242;51.694;10.006;2022-12-18T08:26:33;12.70;;;3.50;;
66429;SDS011;53242;51.694;10.006;2022-12-18T08:28:55;6.93;;;2.35;;
66429;SDS011;53242;51.694;10.006;2022-12-18T08:31:19;3.08;;;1.48;;
66429;SDS011;53242;51.694;10.006;2022-12-18T08:33:41;10.07;;;3.88;;
66429;SDS011;53242;51.694;10.006;2022-12-18T08:36:04;6.95;;;2.47;;
66429;SDS011;53242;51.694;10.006;2022-12-18T08:38:27;8.00;;;3.08;;
66429;SDS011;53242;51.694;10.006;2022-12-18T08:40:57;9.65;;;3.25;;
66429;SDS011;53242;51.694;10.006;2022-12-18T08:43:21;16.23;;;4.68;;
66429;SDS011;53242;51.694;10.006;2022-12-18T08:46:01;4.93;;;1.88;;
66429;SDS011;53242;51.694;10.006;2022-12-18T08:48:24;9.02;;;3.53;;
66429;SDS011;53242;51.694;10.006;2022-12-18T08:50:56;16.92;;;3.92;;
66429;SDS011;53242;51.694;10.006;2022-12-18T08:53:19;11.90;;;3.75;;
66429;SDS011;53242;51.694;10.006;2022-12-18T08:55:41;9.95;;;3.65;;
66429;SDS011;53242;51.694;10.006;2022-12-18T08:58:04;16.05;;;5.95;;
66429;SDS011;53242;51.694;10.006;2022-12-18T09:00:26;18.83;;;6.43;;
66429;SDS011;53242;51.694;10.006;2022-12-18T09:02:48;16.98;;;6.10;;
66429;SDS011;53242;51.694;10.006;2022-12-18T09:05:11;18.75;;;5.72;;
66429;SDS011;53242;51.694;10.006;2022-12-18T09:07:33;27.35;;;8.73;;
66429;SDS011;53242;51.694;10.006;2022-12-18T09:09:56;44.95;;;12.90;;
66429;SDS011;53242;51.694;10.006;2022-12-18T09:12:18;96.60;;;29.92;;
66429;SDS011;53242;51.694;10.006;2022-12-18T09:14:41;30.33;;;9.88;;
66429;SDS011;53242;51.694;10.006;2022-12-18T09:17:04;23.67;;;7.85;;
66429;SDS011;53242;51.694;10.006;2022-12-18T09:19:26;20.77;;;6.47;;
66429;SDS011;53242;51.694;10.006;2022-12-18T09:21:48;28.17;;;10.02;;
66429;SDS011;53242;51.694;10.006;2022-12-18T09:24:14;17.70;;;7.00;;
66429;SDS011;53242;51.694;10.006;2022-12-18T09:26:37;21.30;;;7.63;;
66429;SDS011;53242;51.694;10.006;2022-12-18T09:29:00;25.38;;;8.40;;
66429;SDS011;53242;51.694;10.006;2022-12-18T09:31:23;12.63;;;5.40;;
66429;SDS011;53242;51.694;10.006;2022-12-18T09:33:46;26.52;;;8.73;;
66429;SDS011;53242;51.694;10.006;2022-12-18T09:36:09;24.42;;;9.38;;
66429;SDS011;53242;51.694;10.006;2022-12-18T09:38:33;32.55;;;9.00;;
66429;SDS011;53242;51.694;10.006;2022-12-18T09:41:00;31.35;;;10.27;;
66429;SDS011;53242;51.694;10.006;2022-12-18T09:43:29;23.13;;;7.53;;
66429;SDS011;53242;51.694;10.006;2022-12-18T09:45:59;10.73;;;4.10;;
66429;SDS011;53242;51.694;10.006;2022-12-18T09:48:27;28.88;;;10.02;;
66429;SDS011;53242;51.694;10.006;2022-12-18T09:50:54;29.77;;;10.68;;
66429;SDS011;53242;51.694;10.006;2022-12-18T09:53:22;26.73;;;9.80;;
66429;SDS011;53242;51.694;10.006;2022-12-18T09:55:48;29.05;;;10.45;;
66429;SDS011;53242;51.694;10.006;2022-12-18T10:00:41;20.95;;;7.82;;
66429;SDS011;53242;51.694;10.006;2022-12-18T10:03:08;23.25;;;9.18;;
66429;SDS011;53242;51.694;10.006;2022-12-18T10:08:00;24.15;;;8.35;;
66429;SDS011;53242;51.694;10.006;2022-12-18T10:13:19;21.45;;;7.60;;
66429;SDS011;53242;51.694;10.006;2022-12-18T10:21:46;35.35;;;12.18;;
66429;SDS011;53242;51.694;10.006;2022-12-18T10:24:22;16.05;;;5.40;;
66429;SDS011;53242;51.694;10.006;2022-12-18T10:26:47;14.57;;;4.63;;
66429;SDS011;53242;51.694;10.006;2022-12-18T10:29:13;9.23;;;3.47;;
66429;SDS011;53242;51.694;10.006;2022-12-18T10:31:37;15.07;;;4.22;;
66429;SDS011;53242;51.694;10.006;2022-12-18T10:34:00;4.88;;;2.45;;
66429;SDS011;53242;51.694;10.006;2022-12-18T10:36:23;5.63;;;2.05;;
66429;SDS011;53242;51.694;10.006;2022-12-18T10:38:46;6.90;;;2.22;;
66429;SDS011;53242;51.694;10.006;2022-12-18T10:43:40;7.80;;;2.53;;
66429;SDS011;53242;51.694;10.006;2022-12-18T10:48:31;11.55;;;4.55;;
66429;SDS011;53242;51.694;10.006;2022-12-18T10:50:56;7.75;;;3.33;;
66429;SDS011;53242;51.694;10.006;2022-12-18T10:53:19;6.00;;;1.55;;
66429;SDS011;53242;51.694;10.006;2022-12-18T10:55:47;10.70;;;2.45;;
66429;SDS011;53242;51.694;10.006;2022-12-18T10:58:16;10.23;;;3.42;;
66429;SDS011;53242;51.694;10.006;2022-12-18T11:01:01;11.13;;;3.22;;
66429;SDS011;53242;51.694;10.006;2022-12-18T11:03:30;9.93;;;3.10;;
66429;SDS011;53242;51.694;10.006;2022-12-18T11:06:04;8.13;;;2.58;;
66429;SDS011;53242;51.694;10.006;2022-12-18T11:08:33;8.40;;;2.25;;
66429;SDS011;53242;51.694;10.006;2022-12-18T11:10:56;10.05;;;2.95;;
66429;SDS011;53242;51.694;10.006;2022-12-18T11:13:19;14.70;;;4.22;;
66429;SDS011;53242;51.694;10.006;2022-12-18T11:15:44;10.80;;;3.22;;
66429;SDS011;53242;51.694;10.006;2022-12-18T11:20:59;18.73;;;5.82;;
66429;SDS011;53242;51.694;10.006;2022-12-18T11:23:29;9.18;;;2.28;;
66429;SDS011;53242;51.694;10.006;2022-12-18T11:25:55;13.90;;;4.45;;
66429;SDS011;53242;51.694;10.006;2022-12-18T11:33:41;14.55;;;4.63;;
66429;SDS011;53242;51.694;10.006;2022-12-18T11:36:08;13.52;;;5.60;;
66429;SDS011;53242;51.694;10.006;2022-12-18T11:38:33;9.40;;;4.35;;
66429;SDS011;53242;51.694;10.006;2022-12-18T11:43:31;13.80;;;4.45;;
66429;SDS011;53242;51.694;10.006;2022-12-18T11:46:07;11.35;;;4.53;;
66429;SDS011;53242;51.694;10.006;2022-12-18T11:48:43;11.38;;;4.25;;
66429;SDS011;53242;51.694;10.006;2022-12-18T11:51:12;7.82;;;2.90;;
66429;SDS011;53242;51.694;10.006;2022-12-18T11:53:40;12.50;;;4.25;;
66429;SDS011;53242;51.694;10.006;2022-12-18T11:58:47;18.73;;;5.18;;
66429;SDS011;53242;51.694;10.006;2022-12-18T12:01:23;11.98;;;4.32;;
66429;SDS011;53242;51.694;10.006;2022-12-18T12:04:05;11.20;;;4.13;;
66429;SDS011;53242;51.694;10.006;2022-12-18T12:09:40;10.48;;;3.97;;
66429;SDS011;53242;51.694;10.006;2022-12-18T12:12:46;10.95;;;3.78;;
66429;SDS011;53242;51.694;10.006;2022-12-18T12:36:35;6.43;;;2.77;;
66429;SDS011;53242;51.694;10.006;2022-12-18T12:39:02;9.57;;;3.13;;
66429;SDS011;53242;51.694;10.006;2022-12-18T12:41:30;14.02;;;4.80;;
66429;SDS011;53242;51.694;10.006;2022-12-18T12:44:16;13.30;;;4.20;;
66429;SDS011;53242;51.694;10.006;2022-12-18T12:46:58;19.25;;;6.03;;
66429;SDS011;53242;51.694;10.006;2022-12-18T12:49:26;11.50;;;4.05;;
66429;SDS011;53242;51.694;10.006;2022-12-18T12:52:03;14.15;;;4.88;;
66429;SDS011;53242;51.694;10.006;2022-12-18T12:54:28;12.13;;;4.80;;
66429;SDS011;53242;51.694;10.006;2022-12-18T12:59:56;13.55;;;3.88;;
66429;SDS011;53242;51.694;10.006;2022-12-18T13:02:42;11.52;;;3.47;;
66429;SDS011;53242;51.694;10.006;2022-12-18T13:05:18;10.15;;;2.95;;
66429;SDS011;53242;51.694;10.006;2022-12-18T13:07:55;12.32;;;3.53;;
66429;SDS011;53242;51.694;10.006;2022-12-18T13:10:25;39.38;;;4.82;;
66429;SDS011;53242;51.694;10.006;2022-12-18T13:13:27;11.02;;;3.40;;
66429;SDS011;53242;51.694;10.006;2022-12-18T13:15:46;8.23;;;2.88;;
66429;SDS011;53242;51.694;10.006;2022-12-18T13:20:38;13.43;;;4.13;;
66429;SDS011;53242;51.694;10.006;2022-12-18T13:25:45;13.27;;;4.65;;
66429;SDS011;53242;51.694;10.006;2022-12-18T13:28:09;13.45;;;4.63;;
66429;SDS011;53242;51.694;10.006;2022-12-18T13:35:39;10.93;;;3.63;;
66429;SDS011;53242;51.694;10.006;2022-12-18T13:43:43;10.70;;;3.53;;
66429;SDS011;53242;51.694;10.006;2022-12-18T13:48:27;11.27;;;2.92;;
66429;SDS011;53242;51.694;10.006;2022-12-18T13:50:55;13.98;;;2.88;;
66429;SDS011;53242;51.694;10.006;2022-12-18T13:53:28;9.32;;;4.25;;
66429;SDS011;53242;51.694;10.006;2022-12-18T13:56:01;7.75;;;2.72;;
66429;SDS011;53242;51.694;10.006;2022-12-18T13:58:24;9.18;;;3.40;;
66429;SDS011;53242;51.694;10.006;2022-12-18T14:00:46;15.98;;;4.28;;
66429;SDS011;53242;51.694;10.006;2022-12-18T14:03:19;10.98;;;4.22;;
66429;SDS011;53242;51.694;10.006;2022-12-18T14:05:55;10.85;;;3.35;;
66429;SDS011;53242;51.694;10.006;2022-12-18T14:08:23;6.50;;;2.42;;
66429;SDS011;53242;51.694;10.006;2022-12-18T14:10:46;14.15;;;4.20;;
66429;SDS011;53242;51.694;10.006;2022-12-18T14:13:14;8.63;;;2.33;;
66429;SDS011;53242;51.694;10.006;2022-12-18T14:15:42;8.50;;;3.30;;
66429;SDS011;53242;51.694;10.006;2022-12-18T14:20:44;12.25;;;3.30;;
66429;SDS011;53242;51.694;10.006;2022-12-18T14:25:59;9.45;;;2.97;;
66429;SDS011;53242;51.694;10.006;2022-12-18T14:28:44;11.10;;;3.60;;
66429;SDS011;53242;51.694;10.006;2022-12-18T14:31:16;9.77;;;3.22;;
66429;SDS011;53242;51.694;10.006;2022-12-18T14:33:43;4.25;;;1.60;;
66429;SDS011;53242;51.694;10.006;2022-12-18T14:36:13;10.50;;;3.33;;
66429;SDS011;53242;51.694;10.006;2022-12-18T14:38:39;11.45;;;3.85;;
66429;SDS011;53242;51.694;10.006;2022-12-18T14:41:03;12.55;;;3.25;;
66429;SDS011;53242;51.694;10.006;2022-12-18T14:43:28;9.32;;;3.25;;
66429;SDS011;53242;51.694;10.006;2022-12-18T14:45:53;9.02;;;2.78;;
66429;SDS011;53242;51.694;10.006;2022-12-18T14:48:17;13.30;;;3.63;;
66429;SDS011;53242;51.694;10.006;2022-12-18T14:50:45;8.45;;;2.67;;
66429;SDS011;53242;51.694;10.006;2022-12-18T14:53:22;5.30;;;2.45;;
66429;SDS011;53242;51.694;10.006;2022-12-18T14:55:54;15.30;;;3.85;;
66429;SDS011;53242;51.694;10.006;2022-12-18T14:58:17;12.85;;;3.80;;
66429;SDS011;53242;51.694;10.006;2022-12-18T15:00:41;10.88;;;3.65;;
66429;SDS011;53242;51.694;10.006;2022-12-18T15:03:06;10.05;;;3.25;;
66429;SDS011;53242;51.694;10.006;2022-12-18T15:05:30;6.63;;;2.42;;
66429;SDS011;53242;51.694;10.006;2022-12-18T15:07:54;11.40;;;3.35;;
66429;SDS011;53242;51.694;10.006;2022-12-18T15:10:22;5.07;;;1.77;;
66429;SDS011;53242;51.694;10.006;2022-12-18T15:20:44;4.72;;;1.90;;
66429;SDS011;53242;51.694;10.006;2022-12-18T15:23:16;7.78;;;2.10;;
66429;SDS011;53242;51.694;10.006;2022-12-18T15:25:48;8.38;;;2.67;;
66429;SDS011;53242;51.694;10.006;2022-12-18T15:28:22;6.15;;;2.65;;
66429;SDS011;53242;51.694;10.006;2022-12-18T15:31:01;8.98;;;3.22;;
66429;SDS011;53242;51.694;10.006;2022-12-18T15:33:30;9.25;;;3.28;;
66429;SDS011;53242;51.694;10.006;2022-12-18T15:36:15;11.43;;;3.50;;
66429;SDS011;53242;51.694;10.006;2022-12-18T15:38:38;13.02;;;3.95;;
66429;SDS011;53242;51.694;10.006;2022-12-18T15:41:01;7.93;;;2.63;;
66429;SDS011;53242;51.694;10.006;2022-12-18T15:43:24;13.23;;;4.05;;
66429;SDS011;53242;51.694;10.006;2022-12-18T15:45:56;4.88;;;2.42;;
66429;SDS011;53242;51.694;10.006;2022-12-18T15:48:20;13.90;;;4.15;;
66429;SDS011;53242;51.694;10.006;2022-12-18T15:50:44;14.80;;;4.40;;
66429;SDS011;53242;51.694;10.006;2022-12-18T15:53:07;9.13;;;3.53;;
66429;SDS011;53242;51.694;10.006;2022-12-18T15:55:30;12.27;;;4.03;;
66429;SDS011;53242;51.694;10.006;2022-12-18T15:58:13;9.50;;;2.90;;
66429;SDS011;53242;51.694;10.006;2022-12-18T16:00:36;8.50;;;2.63;;
66429;SDS011;53242;51.694;10.006;2022-12-18T16:03:00;11.05;;;3.25;;
66429;SDS011;53242;51.694;10.006;2022-12-18T16:05:23;15.82;;;4.40;;
66429;SDS011;53242;51.694;10.006;2022-12-18T16:07:47;21.23;;;4.68;;
66429;SDS011;53242;51.694;10.006;2022-12-18T16:10:10;14.10;;;3.88;;
66429;SDS011;53242;51.694;10.006;2022-12-18T16:12:32;18.05;;;4.93;;
66429;SDS011;53242;51.694;10.006;2022-12-18T16:14:55;18.67;;;5.80;;